createdAt,value
2023-06-11T00:00:01.975Z,961.31
2023-06-11T00:05:04.048Z,961.28
2023-06-11T00:10:05.446Z,961.31
2023-06-11T00:15:07.224Z,961.28
2023-06-11T00:20:09.295Z,961.28
2023-06-11T00:25:11.605Z,961.28
2023-06-11T00:30:13.046Z,961.36
2023-06-11T00:35:14.770Z,961.33
2023-06-11T00:40:16.294Z,961.34
2023-06-11T00:45:18.100Z,961.33
2023-06-11T00:50:19.434Z,961.3
2023-06-11T00:55:21.423Z,961.31
2023-06-11T01:00:22.917Z,961.31
2023-06-11T01:05:24.674Z,961.33
2023-06-11T01:10:25.939Z,961.38
2023-06-11T01:15:27.322Z,961.38
2023-06-11T01:20:28.868Z,961.43
2023-06-11T01:25:30.659Z,961.42
2023-06-11T01:30:32.504Z,961.47
2023-06-11T01:35:34.692Z,961.5
2023-06-11T01:40:36.225Z,961.43
2023-06-11T01:45:37.918Z,961.44
2023-06-11T01:50:39.853Z,961.37
2023-06-11T01:55:41.386Z,961.41
2023-06-11T02:00:43.061Z,961.44
2023-06-11T02:05:45.047Z,961.48
2023-06-11T02:10:46.539Z,961.53
2023-06-11T02:15:48.066Z,961.48
2023-06-11T02:20:49.279Z,961.44
2023-06-11T02:25:50.459Z,961.49
2023-06-11T02:30:52.354Z,961.45
2023-06-11T02:35:53.856Z,961.45
2023-06-11T02:40:55.963Z,961.55
2023-06-11T02:45:57.678Z,961.58
2023-06-11T02:50:59.751Z,961.58
2023-06-11T02:56:01.469Z,961.65
2023-06-11T03:01:03.530Z,961.66
2023-06-11T03:06:05.499Z,961.65
2023-06-11T03:11:06.844Z,961.64
2023-06-11T03:16:08.185Z,961.7
2023-06-11T03:21:09.485Z,961.69
2023-06-11T03:26:10.960Z,961.71
2023-06-11T03:31:12.234Z,961.73
2023-06-11T03:36:13.489Z,961.73
2023-06-11T03:41:15.495Z,961.73
2023-06-11T03:46:17.484Z,961.71
2023-06-11T03:51:18.970Z,961.75
2023-06-11T03:56:20.249Z,961.81
2023-06-11T04:01:21.980Z,961.83
2023-06-11T04:06:23.953Z,961.87
2023-06-11T04:11:25.467Z,961.9
2023-06-11T04:16:27.297Z,961.95
2023-06-11T04:21:29.392Z,961.97
2023-06-11T04:26:30.866Z,961.99
2023-06-11T04:31:32.328Z,962.01
2023-06-11T04:36:34.242Z,962.07
2023-06-11T04:41:36.103Z,962.01
2023-06-11T04:46:37.232Z,962.03
2023-06-11T04:51:38.489Z,962.05
2023-06-11T04:56:41.320Z,962.1
2023-06-11T05:01:42.050Z,962.14
2023-06-11T05:06:43.485Z,962.09
2023-06-11T05:11:45.686Z,962.06
2023-06-11T05:16:47.062Z,962.09
2023-06-11T05:21:48.320Z,962.09
2023-06-11T05:26:49.737Z,962.13
2023-06-11T05:31:51.751Z,962.16
2023-06-11T05:36:53.148Z,962.19
2023-06-11T05:41:54.565Z,962.18
2023-06-11T05:46:56.361Z,962.28
2023-06-11T05:51:58.126Z,962.26
2023-06-11T05:56:59.369Z,962.22
2023-06-11T06:02:00.563Z,962.27
2023-06-11T06:07:02.223Z,962.31
2023-06-11T06:12:03.726Z,962.25
2023-06-11T06:17:05.711Z,962.37
2023-06-11T06:22:07.808Z,962.4
2023-06-11T06:27:09.881Z,962.44
2023-06-11T06:32:11.368Z,962.42
2023-06-11T06:37:13.307Z,962.45
2023-06-11T06:42:14.546Z,962.45
2023-06-11T06:47:16.490Z,962.4
2023-06-11T06:52:19.010Z,962.32
2023-06-11T06:57:18.961Z,962.37
2023-06-11T07:02:20.272Z,962.38
2023-06-11T07:07:22.202Z,962.39
2023-06-11T07:12:24.225Z,962.41
2023-06-11T07:17:25.920Z,962.48
2023-06-11T07:42:33.619Z,962.54
2023-06-11T07:57:39.861Z,962.55
2023-06-11T09:03:02.509Z,962.44
2023-06-11T09:18:08.997Z,962.47
2023-06-11T10:18:25.731Z,962.61
2023-06-11T10:23:27.781Z,962.6
2023-06-11T10:28:29.093Z,962.61
2023-06-11T10:33:30.695Z,962.64
2023-06-11T10:38:31.809Z,962.61
2023-06-11T10:43:33.458Z,962.64
2023-06-11T10:48:34.940Z,962.62
2023-06-11T10:53:36.231Z,962.6
2023-06-11T10:58:38.139Z,962.55
2023-06-11T11:03:39.938Z,962.62
2023-06-11T11:08:41.608Z,962.63
2023-06-11T11:13:43.236Z,962.54
2023-06-11T11:18:44.422Z,962.53
2023-06-11T11:23:45.968Z,962.51
2023-06-11T11:28:47.879Z,962.45
2023-06-11T11:33:49.491Z,962.46
2023-06-11T11:38:51.081Z,962.46
2023-06-11T11:43:52.644Z,962.42
2023-06-11T11:48:53.908Z,962.42
2023-06-11T11:53:55.906Z,962.37
2023-06-11T11:58:58.038Z,962.33
2023-06-11T12:03:59.541Z,962.26
2023-06-11T12:09:00.499Z,962.27
2023-06-11T12:14:02.389Z,962.22
2023-06-11T12:19:14.718Z,962.21
2023-06-11T12:24:06.439Z,962.17
2023-06-11T12:29:08.318Z,962.27
2023-06-11T12:34:09.595Z,962.16
2023-06-11T12:39:11.037Z,962.11
2023-06-11T12:44:12.682Z,961.95
2023-06-11T12:49:14.761Z,962.14
2023-06-11T12:54:16.525Z,962.07
2023-06-11T12:59:17.943Z,962.01
2023-06-11T13:04:19.580Z,961.91
2023-06-11T13:09:21.485Z,961.96
2023-06-11T13:14:23.412Z,961.87
2023-06-11T13:19:25.536Z,961.86
2023-06-11T13:24:27.449Z,961.89
2023-06-11T13:29:28.749Z,961.79
2023-06-11T13:34:30.046Z,961.8
2023-06-11T13:39:31.916Z,961.77
2023-06-11T13:44:33.483Z,961.81
2023-06-11T13:49:34.786Z,961.78
2023-06-11T13:54:36.715Z,961.78
2023-06-11T13:54:43.082Z,961.82
2023-06-11T13:59:44.765Z,961.67
2023-06-11T14:04:46.745Z,961.64
2023-06-11T14:09:48.794Z,961.63
2023-06-11T14:14:50.407Z,961.64
2023-06-11T14:19:52.420Z,961.58
2023-06-11T14:24:53.942Z,961.49
2023-06-11T14:29:55.607Z,961.52
2023-06-11T14:34:59.349Z,961.45
2023-06-11T14:39:59.397Z,961.43
2023-06-11T14:45:01.055Z,961.38
2023-06-11T14:50:02.167Z,961.34
2023-06-11T14:55:03.784Z,961.27
2023-06-11T15:00:05.560Z,961.25
2023-06-11T15:05:06.897Z,961.31
2023-06-11T15:10:09.153Z,961.22
2023-06-11T15:15:12.508Z,961.12
2023-06-11T15:20:11.813Z,961.11
2023-06-11T15:25:12.945Z,961.14
2023-06-11T15:30:14.674Z,961.14
2023-06-11T15:35:16.415Z,961.12
2023-06-11T15:40:17.803Z,961.14
2023-06-11T15:45:19.303Z,961.09
2023-06-11T15:50:21.308Z,961.06
2023-06-11T15:55:23.072Z,960.95
2023-06-11T16:00:24.652Z,960.92
2023-06-11T16:05:26.316Z,960.9
2023-06-11T16:10:27.801Z,960.86
2023-06-11T16:15:28.954Z,960.91
2023-06-11T16:20:30.438Z,960.93
2023-06-11T16:25:31.840Z,960.95
2023-06-11T16:30:33.829Z,960.97
2023-06-11T16:35:35.482Z,960.97
2023-06-11T16:40:36.767Z,961.04
2023-06-11T16:45:38.538Z,960.99
2023-06-11T16:50:39.934Z,961.03
2023-06-11T16:55:41.374Z,961.01
2023-06-11T17:00:42.758Z,961.02
2023-06-11T17:05:44.349Z,960.99
2023-06-11T17:10:45.602Z,960.96
2023-06-11T17:15:47.185Z,961
2023-06-11T17:20:48.924Z,961
2023-06-11T17:25:50.230Z,960.96
2023-06-11T17:30:51.405Z,960.92
2023-06-11T17:35:53.307Z,960.95
2023-06-11T17:40:54.532Z,960.97
2023-06-11T17:45:56.283Z,961.03
2023-06-11T17:50:57.492Z,961.03
2023-06-11T17:55:59.296Z,961.05
2023-06-11T18:01:01.033Z,961.06
2023-06-11T18:06:02.158Z,961.08
2023-06-11T18:11:03.940Z,961.14
2023-06-11T18:16:05.991Z,961.13
2023-06-11T18:21:07.956Z,961.14
2023-06-11T18:26:09.291Z,961.14
2023-06-11T18:31:11.338Z,961.08
2023-06-11T18:36:13.008Z,961.08
2023-06-11T18:41:14.345Z,961.12
2023-06-11T18:46:16.236Z,961.11
2023-06-11T18:51:17.410Z,961.12
2023-06-11T18:56:19.370Z,961.13
2023-06-11T19:01:21.224Z,961.13
2023-06-11T19:06:22.558Z,961.13
2023-06-11T19:11:23.739Z,961.16
2023-06-11T19:16:25.425Z,961.17
2023-06-11T19:21:27.477Z,961.16
2023-06-11T19:26:29.370Z,961.18
2023-06-11T19:31:31.477Z,961.2
2023-06-11T19:36:33.258Z,961.23
2023-06-11T19:41:35.103Z,961.27
2023-06-11T19:46:36.447Z,961.31
2023-06-11T19:51:37.665Z,961.33
2023-06-11T19:56:39.842Z,961.36
2023-06-11T20:01:41.836Z,961.4
2023-06-11T20:06:44.172Z,961.44
2023-06-11T20:11:45.299Z,961.48
2023-06-11T20:16:46.886Z,961.54
2023-06-11T20:21:48.581Z,961.63
2023-06-11T20:26:50.370Z,961.66
2023-06-11T20:31:52.172Z,961.69
2023-06-11T20:36:53.295Z,961.71
2023-06-11T20:41:55.411Z,961.69
2023-06-11T20:46:57.137Z,961.72
2023-06-11T20:51:58.461Z,961.76
2023-06-11T20:57:00.589Z,961.77
2023-06-11T21:02:02.715Z,961.76
2023-06-11T21:07:04.118Z,961.71
2023-06-11T21:12:06.114Z,961.7
2023-06-11T21:17:07.876Z,961.73
2023-06-11T21:22:09.890Z,961.72
2023-06-11T21:27:11.617Z,961.72
2023-06-11T21:32:13.758Z,961.7
2023-06-11T21:37:15.127Z,961.71
2023-06-11T21:42:17.264Z,961.73
2023-06-11T21:47:19.403Z,961.72
2023-06-11T21:52:20.629Z,961.73
2023-06-11T21:57:22.154Z,961.74
2023-06-11T22:02:23.891Z,961.82
2023-06-11T22:27:32.357Z,961.81
2023-06-11T23:02:44.598Z,961.66
2023-06-11T23:12:47.455Z,961.6
2023-06-11T23:32:54.138Z,961.49
2023-06-11T23:47:58.416Z,961.48
